sensor_id;sensor_type;location;lat;lon;timestamp;P1;durP1;ratioP1;P2;durP2;ratioP2
52180;SDS011;38158;53.338;6.514;2024-02-15T00:00:04;48.50;;;23.90;;
52180;SDS011;38158;53.338;6.514;2024-02-15T00:02:33;49.22;;;25.50;;
52180;SDS011;38158;53.338;6.514;2024-02-15T00:04:58;59.10;;;24.83;;
52180;SDS011;38158;53.338;6.514;2024-02-15T00:07:24;66.60;;;27.35;;
52180;SDS011;38158;53.338;6.514;2024-02-15T00:09:51;52.30;;;25.13;;
52180;SDS011;38158;53.338;6.514;2024-02-15T00:12:18;48.90;;;23.63;;
52180;SDS011;38158;53.338;6.514;2024-02-15T00:14:44;56.60;;;24.85;;
52180;SDS011;38158;53.338;6.514;2024-02-15T00:17:09;49.17;;;25.13;;
52180;SDS011;38158;53.338;6.514;2024-02-15T00:19:37;51.80;;;26.05;;
52180;SDS011;38158;53.338;6.514;2024-02-15T00:22:05;52.63;;;25.13;;
52180;SDS011;38158;53.338;6.514;2024-02-15T00:24:30;50.33;;;22.60;;
52180;SDS011;38158;53.338;6.514;2024-02-15T00:26:57;35.50;;;20.42;;
52180;SDS011;38158;53.338;6.514;2024-02-15T00:29:22;34.00;;;18.23;;
52180;SDS011;38158;53.338;6.514;2024-02-15T00:31:49;33.90;;;18.13;;
52180;SDS011;38158;53.338;6.514;2024-02-15T00:34:15;47.08;;;22.58;;
52180;SDS011;38158;53.338;6.514;2024-02-15T00:36:42;48.53;;;21.98;;
52180;SDS011;38158;53.338;6.514;2024-02-15T00:39:09;43.47;;;21.27;;
52180;SDS011;38158;53.338;6.514;2024-02-15T00:41:36;31.75;;;17.48;;
52180;SDS011;38158;53.338;6.514;2024-02-15T00:44:06;41.58;;;19.90;;
52180;SDS011;38158;53.338;6.514;2024-02-15T00:46:38;38.10;;;18.38;;
52180;SDS011;38158;53.338;6.514;2024-02-15T00:49:04;48.17;;;19.98;;
52180;SDS011;38158;53.338;6.514;2024-02-15T00:51:33;48.50;;;19.85;;
52180;SDS011;38158;53.338;6.514;2024-02-15T00:54:04;41.55;;;19.70;;
52180;SDS011;38158;53.338;6.514;2024-02-15T00:56:30;46.72;;;22.10;;
52180;SDS011;38158;53.338;6.514;2024-02-15T00:58:58;41.20;;;19.02;;
52180;SDS011;38158;53.338;6.514;2024-02-15T01:01:25;42.95;;;20.48;;
52180;SDS011;38158;53.338;6.514;2024-02-15T01:03:51;38.20;;;17.23;;
52180;SDS011;38158;53.338;6.514;2024-02-15T01:06:17;42.90;;;19.35;;
52180;SDS011;38158;53.338;6.514;2024-02-15T01:08:43;43.00;;;20.00;;
52180;SDS011;38158;53.338;6.514;2024-02-15T01:11:09;41.80;;;19.80;;
52180;SDS011;38158;53.338;6.514;2024-02-15T01:13:35;31.45;;;14.45;;
52180;SDS011;38158;53.338;6.514;2024-02-15T01:16:00;31.55;;;16.40;;
52180;SDS011;38158;53.338;6.514;2024-02-15T01:18:29;44.53;;;18.50;;
52180;SDS011;38158;53.338;6.514;2024-02-15T01:20:56;42.50;;;17.27;;
52180;SDS011;38158;53.338;6.514;2024-02-15T01:23:22;37.83;;;16.50;;
52180;SDS011;38158;53.338;6.514;2024-02-15T01:25:48;33.88;;;16.42;;
52180;SDS011;38158;53.338;6.514;2024-02-15T01:28:14;38.00;;;17.23;;
52180;SDS011;38158;53.338;6.514;2024-02-15T01:30:40;37.42;;;16.08;;
52180;SDS011;38158;53.338;6.514;2024-02-15T01:33:08;36.10;;;16.42;;
52180;SDS011;38158;53.338;6.514;2024-02-15T01:35:36;35.38;;;16.38;;
52180;SDS011;38158;53.338;6.514;2024-02-15T01:38:02;30.80;;;15.45;;
52180;SDS011;38158;53.338;6.514;2024-02-15T01:40:29;36.15;;;16.45;;
52180;SDS011;38158;53.338;6.514;2024-02-15T01:42:54;31.80;;;14.60;;
52180;SDS011;38158;53.338;6.514;2024-02-15T01:45:20;32.95;;;15.48;;
52180;SDS011;38158;53.338;6.514;2024-02-15T01:47:47;30.05;;;16.33;;
52180;SDS011;38158;53.338;6.514;2024-02-15T01:52:42;37.35;;;16.52;;
52180;SDS011;38158;53.338;6.514;2024-02-15T01:55:12;30.48;;;15.82;;
52180;SDS011;38158;53.338;6.514;2024-02-15T01:57:40;30.42;;;14.10;;
52180;SDS011;38158;53.338;6.514;2024-02-15T02:00:10;32.83;;;15.65;;
52180;SDS011;38158;53.338;6.514;2024-02-15T02:02:38;26.58;;;14.48;;
52180;SDS011;38158;53.338;6.514;2024-02-15T02:05:06;33.13;;;14.55;;
52180;SDS011;38158;53.338;6.514;2024-02-15T02:07:33;27.67;;;15.13;;
52180;SDS011;38158;53.338;6.514;2024-02-15T02:09:58;30.55;;;14.80;;
52180;SDS011;38158;53.338;6.514;2024-02-15T02:12:25;28.30;;;14.57;;
52180;SDS011;38158;53.338;6.514;2024-02-15T02:14:52;21.08;;;12.95;;
52180;SDS011;38158;53.338;6.514;2024-02-15T02:17:19;29.40;;;14.60;;
52180;SDS011;38158;53.338;6.514;2024-02-15T02:19:45;25.73;;;14.00;;
52180;SDS011;38158;53.338;6.514;2024-02-15T02:22:11;31.55;;;14.93;;
52180;SDS011;38158;53.338;6.514;2024-02-15T02:24:40;27.77;;;13.63;;
52180;SDS011;38158;53.338;6.514;2024-02-15T02:27:23;29.95;;;13.93;;
52180;SDS011;38158;53.338;6.514;2024-02-15T02:29:52;22.13;;;13.15;;
52180;SDS011;38158;53.338;6.514;2024-02-15T02:32:18;29.95;;;14.25;;
52180;SDS011;38158;53.338;6.514;2024-02-15T02:34:44;30.02;;;14.60;;
52180;SDS011;38158;53.338;6.514;2024-02-15T02:37:09;25.48;;;14.18;;
52180;SDS011;38158;53.338;6.514;2024-02-15T02:39:36;30.88;;;14.55;;
52180;SDS011;38158;53.338;6.514;2024-02-15T02:42:02;32.35;;;14.50;;
52180;SDS011;38158;53.338;6.514;2024-02-15T02:44:28;28.20;;;13.70;;
52180;SDS011;38158;53.338;6.514;2024-02-15T02:46:53;28.17;;;13.90;;
52180;SDS011;38158;53.338;6.514;2024-02-15T02:49:19;28.77;;;12.93;;
52180;SDS011;38158;53.338;6.514;2024-02-15T02:51:44;24.63;;;13.27;;
52180;SDS011;38158;53.338;6.514;2024-02-15T02:54:10;25.88;;;11.90;;
52180;SDS011;38158;53.338;6.514;2024-02-15T02:56:36;26.30;;;13.20;;
52180;SDS011;38158;53.338;6.514;2024-02-15T02:59:01;28.40;;;13.70;;
52180;SDS011;38158;53.338;6.514;2024-02-15T03:01:28;35.70;;;14.07;;
52180;SDS011;38158;53.338;6.514;2024-02-15T03:03:54;31.20;;;13.85;;
52180;SDS011;38158;53.338;6.514;2024-02-15T03:06:21;28.10;;;12.05;;
52180;SDS011;38158;53.338;6.514;2024-02-15T03:08:49;25.48;;;12.57;;
52180;SDS011;38158;53.338;6.514;2024-02-15T03:11:19;26.65;;;13.02;;
52180;SDS011;38158;53.338;6.514;2024-02-15T03:13:44;26.70;;;13.75;;
52180;SDS011;38158;53.338;6.514;2024-02-15T03:16:10;24.38;;;12.90;;
52180;SDS011;38158;53.338;6.514;2024-02-15T03:18:36;28.13;;;13.20;;
52180;SDS011;38158;53.338;6.514;2024-02-15T03:21:01;29.92;;;13.48;;
52180;SDS011;38158;53.338;6.514;2024-02-15T03:25:55;27.23;;;12.38;;
52180;SDS011;38158;53.338;6.514;2024-02-15T03:28:21;22.20;;;11.20;;
52180;SDS011;38158;53.338;6.514;2024-02-15T03:30:49;24.70;;;12.50;;
52180;SDS011;38158;53.338;6.514;2024-02-15T03:33:15;30.88;;;13.73;;
52180;SDS011;38158;53.338;6.514;2024-02-15T03:35:41;31.33;;;14.63;;
52180;SDS011;38158;53.338;6.514;2024-02-15T03:38:07;32.08;;;14.95;;
52180;SDS011;38158;53.338;6.514;2024-02-15T03:40:32;37.58;;;15.95;;
52180;SDS011;38158;53.338;6.514;2024-02-15T03:42:58;38.95;;;16.08;;
52180;SDS011;38158;53.338;6.514;2024-02-15T03:45:24;41.50;;;16.05;;
52180;SDS011;38158;53.338;6.514;2024-02-15T03:47:53;38.63;;;15.73;;
52180;SDS011;38158;53.338;6.514;2024-02-15T03:50:20;37.72;;;16.02;;
52180;SDS011;38158;53.338;6.514;2024-02-15T03:52:49;40.72;;;15.60;;
52180;SDS011;38158;53.338;6.514;2024-02-15T03:55:15;29.92;;;14.60;;
52180;SDS011;38158;53.338;6.514;2024-02-15T03:57:41;34.17;;;14.93;;
52180;SDS011;38158;53.338;6.514;2024-02-15T04:02:36;34.50;;;13.32;;
52180;SDS011;38158;53.338;6.514;2024-02-15T04:05:02;38.60;;;13.75;;
52180;SDS011;38158;53.338;6.514;2024-02-15T04:07:30;35.63;;;12.40;;
52180;SDS011;38158;53.338;6.514;2024-02-15T04:09:55;36.95;;;13.15;;
52180;SDS011;38158;53.338;6.514;2024-02-15T04:12:21;27.67;;;11.77;;
52180;SDS011;38158;53.338;6.514;2024-02-15T04:14:47;37.30;;;12.95;;
52180;SDS011;38158;53.338;6.514;2024-02-15T04:17:14;38.00;;;12.33;;
52180;SDS011;38158;53.338;6.514;2024-02-15T04:19:43;39.95;;;12.02;;
52180;SDS011;38158;53.338;6.514;2024-02-15T04:22:09;41.30;;;13.45;;
52180;SDS011;38158;53.338;6.514;2024-02-15T04:24:35;38.60;;;13.38;;
52180;SDS011;38158;53.338;6.514;2024-02-15T04:27:07;41.63;;;14.15;;
52180;SDS011;38158;53.338;6.514;2024-02-15T04:29:33;42.95;;;14.23;;
52180;SDS011;38158;53.338;6.514;2024-02-15T04:32:01;34.45;;;13.68;;
52180;SDS011;38158;53.338;6.514;2024-02-15T04:34:27;39.75;;;13.60;;
52180;SDS011;38158;53.338;6.514;2024-02-15T04:36:52;40.95;;;13.73;;
52180;SDS011;38158;53.338;6.514;2024-02-15T04:39:21;27.98;;;10.88;;
52180;SDS011;38158;53.338;6.514;2024-02-15T04:41:51;38.40;;;14.23;;
52180;SDS011;38158;53.338;6.514;2024-02-15T04:44:17;26.58;;;11.75;;
52180;SDS011;38158;53.338;6.514;2024-02-15T04:46:45;34.38;;;13.40;;
52180;SDS011;38158;53.338;6.514;2024-02-15T04:49:12;25.50;;;11.95;;
52180;SDS011;38158;53.338;6.514;2024-02-15T04:51:38;31.70;;;13.70;;
52180;SDS011;38158;53.338;6.514;2024-02-15T04:54:06;39.42;;;13.13;;
52180;SDS011;38158;53.338;6.514;2024-02-15T04:56:32;32.42;;;13.30;;
52180;SDS011;38158;53.338;6.514;2024-02-15T04:58:58;28.40;;;14.23;;
52180;SDS011;38158;53.338;6.514;2024-02-15T05:01:24;26.08;;;12.70;;
52180;SDS011;38158;53.338;6.514;2024-02-15T05:03:49;29.88;;;13.95;;
52180;SDS011;38158;53.338;6.514;2024-02-15T05:06:15;36.42;;;14.52;;
52180;SDS011;38158;53.338;6.514;2024-02-15T05:08:41;30.75;;;15.52;;
52180;SDS011;38158;53.338;6.514;2024-02-15T05:11:09;31.10;;;15.27;;
52180;SDS011;38158;53.338;6.514;2024-02-15T05:13:45;31.70;;;15.18;;
52180;SDS011;38158;53.338;6.514;2024-02-15T05:18:37;28.15;;;14.15;;
52180;SDS011;38158;53.338;6.514;2024-02-15T05:21:05;31.65;;;15.55;;
52180;SDS011;38158;53.338;6.514;2024-02-15T05:23:35;29.95;;;15.48;;
52180;SDS011;38158;53.338;6.514;2024-02-15T05:26:05;32.78;;;15.52;;
52180;SDS011;38158;53.338;6.514;2024-02-15T05:28:31;30.98;;;15.65;;
52180;SDS011;38158;53.338;6.514;2024-02-15T05:33:44;32.88;;;15.52;;
52180;SDS011;38158;53.338;6.514;2024-02-15T05:36:14;25.95;;;14.57;;
52180;SDS011;38158;53.338;6.514;2024-02-15T05:38:41;29.80;;;14.95;;
52180;SDS011;38158;53.338;6.514;2024-02-15T05:41:10;28.67;;;14.02;;
52180;SDS011;38158;53.338;6.514;2024-02-15T05:43:36;31.55;;;14.43;;
52180;SDS011;38158;53.338;6.514;2024-02-15T05:46:03;26.95;;;15.23;;
52180;SDS011;38158;53.338;6.514;2024-02-15T05:48:31;32.78;;;16.42;;
52180;SDS011;38158;53.338;6.514;2024-02-15T05:51:00;36.35;;;16.73;;
52180;SDS011;38158;53.338;6.514;2024-02-15T05:53:26;31.75;;;16.25;;
52180;SDS011;38158;53.338;6.514;2024-02-15T05:55:52;32.47;;;16.27;;
52180;SDS011;38158;53.338;6.514;2024-02-15T05:58:18;29.40;;;17.30;;
52180;SDS011;38158;53.338;6.514;2024-02-15T06:00:44;30.90;;;18.05;;
52180;SDS011;38158;53.338;6.514;2024-02-15T06:03:10;31.65;;;17.65;;
52180;SDS011;38158;53.338;6.514;2024-02-15T06:05:38;34.72;;;17.60;;
52180;SDS011;38158;53.338;6.514;2024-02-15T06:08:05;26.90;;;16.85;;
52180;SDS011;38158;53.338;6.514;2024-02-15T06:10:31;28.90;;;17.00;;
52180;SDS011;38158;53.338;6.514;2024-02-15T06:12:57;33.10;;;17.95;;
52180;SDS011;38158;53.338;6.514;2024-02-15T06:15:24;28.58;;;17.33;;
52180;SDS011;38158;53.338;6.514;2024-02-15T06:17:50;23.33;;;15.70;;
52180;SDS011;38158;53.338;6.514;2024-02-15T06:20:17;28.02;;;16.77;;
52180;SDS011;38158;53.338;6.514;2024-02-15T06:22:46;28.27;;;18.02;;
52180;SDS011;38158;53.338;6.514;2024-02-15T06:25:12;30.97;;;18.33;;
52180;SDS011;38158;53.338;6.514;2024-02-15T06:27:40;33.00;;;19.83;;
52180;SDS011;38158;53.338;6.514;2024-02-15T06:30:07;25.67;;;19.23;;
52180;SDS011;38158;53.338;6.514;2024-02-15T06:32:52;36.40;;;20.88;;
52180;SDS011;38158;53.338;6.514;2024-02-15T06:35:37;33.58;;;20.27;;
52180;SDS011;38158;53.338;6.514;2024-02-15T06:38:22;31.48;;;19.73;;
52180;SDS011;38158;53.338;6.514;2024-02-15T06:41:07;29.85;;;20.75;;
52180;SDS011;38158;53.338;6.514;2024-02-15T06:43:34;36.53;;;23.08;;
52180;SDS011;38158;53.338;6.514;2024-02-15T06:46:00;41.13;;;22.42;;
52180;SDS011;38158;53.338;6.514;2024-02-15T06:48:26;34.30;;;22.73;;
52180;SDS011;38158;53.338;6.514;2024-02-15T06:50:52;33.63;;;22.70;;
52180;SDS011;38158;53.338;6.514;2024-02-15T06:53:18;37.03;;;22.45;;
52180;SDS011;38158;53.338;6.514;2024-02-15T06:55:46;36.55;;;23.48;;
52180;SDS011;38158;53.338;6.514;2024-02-15T06:58:15;30.77;;;21.15;;
52180;SDS011;38158;53.338;6.514;2024-02-15T07:00:44;33.35;;;22.75;;
52180;SDS011;38158;53.338;6.514;2024-02-15T07:03:10;35.88;;;23.38;;
52180;SDS011;38158;53.338;6.514;2024-02-15T07:05:36;36.85;;;22.85;;
52180;SDS011;38158;53.338;6.514;2024-02-15T07:08:07;37.13;;;23.88;;
52180;SDS011;38158;53.338;6.514;2024-02-15T07:10:37;34.90;;;22.73;;
52180;SDS011;38158;53.338;6.514;2024-02-15T07:13:04;33.40;;;22.77;;
52180;SDS011;38158;53.338;6.514;2024-02-15T07:15:31;40.25;;;24.63;;
52180;SDS011;38158;53.338;6.514;2024-02-15T07:18:02;43.40;;;24.20;;
52180;SDS011;38158;53.338;6.514;2024-02-15T07:20:31;37.67;;;24.48;;
52180;SDS011;38158;53.338;6.514;2024-02-15T07:22:59;39.75;;;24.13;;
52180;SDS011;38158;53.338;6.514;2024-02-15T07:25:25;38.17;;;23.92;;
52180;SDS011;38158;53.338;6.514;2024-02-15T07:27:51;36.53;;;25.02;;
52180;SDS011;38158;53.338;6.514;2024-02-15T07:30:17;39.88;;;24.00;;
52180;SDS011;38158;53.338;6.514;2024-02-15T07:32:43;35.13;;;24.17;;
52180;SDS011;38158;53.338;6.514;2024-02-15T07:35:09;37.58;;;24.15;;
52180;SDS011;38158;53.338;6.514;2024-02-15T07:37:35;40.42;;;26.67;;
52180;SDS011;38158;53.338;6.514;2024-02-15T07:40:01;37.40;;;25.55;;
52180;SDS011;38158;53.338;6.514;2024-02-15T07:42:29;38.65;;;25.48;;
52180;SDS011;38158;53.338;6.514;2024-02-15T07:44:55;37.85;;;24.63;;
52180;SDS011;38158;53.338;6.514;2024-02-15T07:47:20;38.42;;;24.38;;
52180;SDS011;38158;53.338;6.514;2024-02-15T07:49:49;39.53;;;25.27;;
52180;SDS011;38158;53.338;6.514;2024-02-15T07:52:15;42.90;;;25.05;;
52180;SDS011;38158;53.338;6.514;2024-02-15T07:54:42;36.90;;;23.57;;
52180;SDS011;38158;53.338;6.514;2024-02-15T07:57:07;46.70;;;25.05;;
52180;SDS011;38158;53.338;6.514;2024-02-15T07:59:36;44.55;;;25.55;;
52180;SDS011;38158;53.338;6.514;2024-02-15T08:02:04;41.72;;;24.85;;
52180;SDS011;38158;53.338;6.514;2024-02-15T08:04:30;43.30;;;25.83;;
52180;SDS011;38158;53.338;6.514;2024-02-15T08:06:56;41.08;;;24.67;;
52180;SDS011;38158;53.338;6.514;2024-02-15T08:09:22;41.15;;;24.50;;
52180;SDS011;38158;53.338;6.514;2024-02-15T08:11:49;34.00;;;23.38;;
52180;SDS011;38158;53.338;6.514;2024-02-15T08:14:20;38.92;;;24.92;;
52180;SDS011;38158;53.338;6.514;2024-02-15T08:16:46;33.50;;;23.10;;
52180;SDS011;38158;53.338;6.514;2024-02-15T08:19:12;38.72;;;23.27;;
52180;SDS011;38158;53.338;6.514;2024-02-15T08:21:37;36.42;;;23.17;;
52180;SDS011;38158;53.338;6.514;2024-02-15T08:24:06;37.13;;;22.83;;
52180;SDS011;38158;53.338;6.514;2024-02-15T08:26:38;34.03;;;22.25;;
52180;SDS011;38158;53.338;6.514;2024-02-15T08:29:05;33.97;;;20.38;;
52180;SDS011;38158;53.338;6.514;2024-02-15T08:31:31;34.83;;;23.42;;
52180;SDS011;38158;53.338;6.514;2024-02-15T08:33:57;39.33;;;22.98;;
52180;SDS011;38158;53.338;6.514;2024-02-15T08:36:23;33.30;;;22.33;;
52180;SDS011;38158;53.338;6.514;2024-02-15T08:38:49;37.83;;;20.85;;
52180;SDS011;38158;53.338;6.514;2024-02-15T08:41:15;34.65;;;21.92;;
52180;SDS011;38158;53.338;6.514;2024-02-15T08:43:46;35.90;;;22.15;;
52180;SDS011;38158;53.338;6.514;2024-02-15T08:46:15;33.75;;;18.05;;
52180;SDS011;38158;53.338;6.514;2024-02-15T08:48:41;37.05;;;18.92;;
52180;SDS011;38158;53.338;6.514;2024-02-15T08:51:06;29.08;;;18.58;;
52180;SDS011;38158;53.338;6.514;2024-02-15T08:53:34;32.35;;;19.88;;
52180;SDS011;38158;53.338;6.514;2024-02-15T08:56:02;31.92;;;20.02;;
52180;SDS011;38158;53.338;6.514;2024-02-15T08:58:28;33.83;;;19.38;;
52180;SDS011;38158;53.338;6.514;2024-02-15T09:00:55;27.58;;;17.05;;
52180;SDS011;38158;53.338;6.514;2024-02-15T09:03:21;29.80;;;18.73;;
52180;SDS011;38158;53.338;6.514;2024-02-15T09:05:47;28.70;;;18.48;;
52180;SDS011;38158;53.338;6.514;2024-02-15T09:08:13;20.52;;;15.27;;
52180;SDS011;38158;53.338;6.514;2024-02-15T09:10:40;28.98;;;17.23;;
52180;SDS011;38158;53.338;6.514;2024-02-15T09:15:33;22.48;;;14.13;;
52180;SDS011;38158;53.338;6.514;2024-02-15T09:18:00;25.50;;;18.15;;
52180;SDS011;38158;53.338;6.514;2024-02-15T09:20:26;23.75;;;15.40;;
52180;SDS011;38158;53.338;6.514;2024-02-15T09:22:53;22.02;;;14.65;;
52180;SDS011;38158;53.338;6.514;2024-02-15T09:25:20;22.80;;;14.98;;
52180;SDS011;38158;53.338;6.514;2024-02-15T09:27:49;28.98;;;16.08;;
52180;SDS011;38158;53.338;6.514;2024-02-15T09:30:15;21.27;;;15.95;;
52180;SDS011;38158;53.338;6.514;2024-02-15T09:32:42;26.95;;;15.88;;
52180;SDS011;38158;53.338;6.514;2024-02-15T09:35:09;23.60;;;16.25;;
52180;SDS011;38158;53.338;6.514;2024-02-15T09:37:38;19.90;;;14.85;;
52180;SDS011;38158;53.338;6.514;2024-02-15T09:40:12;22.23;;;15.82;;
52180;SDS011;38158;53.338;6.514;2024-02-15T09:42:40;20.60;;;15.68;;
52180;SDS011;38158;53.338;6.514;2024-02-15T09:45:06;22.52;;;15.05;;
52180;SDS011;38158;53.338;6.514;2024-02-15T09:47:35;21.83;;;14.95;;
52180;SDS011;38158;53.338;6.514;2024-02-15T09:50:04;21.10;;;14.18;;
52180;SDS011;38158;53.338;6.514;2024-02-15T09:52:39;20.33;;;14.65;;
52180;SDS011;38158;53.338;6.514;2024-02-15T09:55:06;23.42;;;14.75;;
52180;SDS011;38158;53.338;6.514;2024-02-15T09:57:38;19.42;;;14.35;;
52180;SDS011;38158;53.338;6.514;2024-02-15T10:00:04;19.48;;;14.60;;
52180;SDS011;38158;53.338;6.514;2024-02-15T10:02:35;20.50;;;14.65;;
52180;SDS011;38158;53.338;6.514;2024-02-15T10:05:02;21.48;;;14.35;;
52180;SDS011;38158;53.338;6.514;2024-02-15T10:07:28;23.30;;;15.77;;
52180;SDS011;38158;53.338;6.514;2024-02-15T10:09:54;21.35;;;14.48;;
52180;SDS011;38158;53.338;6.514;2024-02-15T10:12:20;20.88;;;14.10;;
52180;SDS011;38158;53.338;6.514;2024-02-15T10:14:49;21.95;;;14.23;;
52180;SDS011;38158;53.338;6.514;2024-02-15T10:17:17;21.23;;;13.95;;
52180;SDS011;38158;53.338;6.514;2024-02-15T10:19:44;17.45;;;12.82;;
52180;SDS011;38158;53.338;6.514;2024-02-15T10:22:37;18.70;;;13.88;;
52180;SDS011;38158;53.338;6.514;2024-02-15T10:25:12;16.70;;;11.98;;
52180;SDS011;38158;53.338;6.514;2024-02-15T10:27:39;20.48;;;13.77;;
52180;SDS011;38158;53.338;6.514;2024-02-15T10:30:15;20.13;;;13.15;;
52180;SDS011;38158;53.338;6.514;2024-02-15T10:32:41;16.70;;;11.68;;
52180;SDS011;38158;53.338;6.514;2024-02-15T10:35:08;25.08;;;13.65;;
52180;SDS011;38158;53.338;6.514;2024-02-15T10:37:34;14.63;;;11.23;;
52180;SDS011;38158;53.338;6.514;2024-02-15T10:40:07;19.20;;;12.18;;
52180;SDS011;38158;53.338;6.514;2024-02-15T10:42:33;17.65;;;12.18;;
52180;SDS011;38158;53.338;6.514;2024-02-15T10:45:01;18.75;;;12.32;;
52180;SDS011;38158;53.338;6.514;2024-02-15T10:47:33;14.45;;;10.82;;
52180;SDS011;38158;53.338;6.514;2024-02-15T10:50:02;16.10;;;11.35;;
52180;SDS011;38158;53.338;6.514;2024-02-15T10:52:30;14.10;;;10.93;;
52180;SDS011;38158;53.338;6.514;2024-02-15T10:55:06;11.98;;;9.27;;
52180;SDS011;38158;53.338;6.514;2024-02-15T10:57:38;14.38;;;10.23;;
52180;SDS011;38158;53.338;6.514;2024-02-15T11:00:08;16.75;;;10.05;;
52180;SDS011;38158;53.338;6.514;2024-02-15T11:02:58;16.35;;;9.80;;
52180;SDS011;38158;53.338;6.514;2024-02-15T11:05:27;12.07;;;9.70;;
52180;SDS011;38158;53.338;6.514;2024-02-15T11:07:57;12.50;;;8.40;;
52180;SDS011;38158;53.338;6.514;2024-02-15T11:10:23;10.23;;;7.68;;
52180;SDS011;38158;53.338;6.514;2024-02-15T11:12:50;10.80;;;7.32;;
52180;SDS011;38158;53.338;6.514;2024-02-15T11:16:02;10.87;;;7.97;;
52180;SDS011;38158;53.338;6.514;2024-02-15T11:18:04;12.10;;;8.18;;
52180;SDS011;38158;53.338;6.514;2024-02-15T11:22:59;9.93;;;8.30;;
52180;SDS011;38158;53.338;6.514;2024-02-15T11:25:32;7.55;;;5.80;;
52180;SDS011;38158;53.338;6.514;2024-02-15T11:30:46;10.30;;;8.23;;
52180;SDS011;38158;53.338;6.514;2024-02-15T11:33:27;9.27;;;7.03;;
52180;SDS011;38158;53.338;6.514;2024-02-15T11:36:07;8.85;;;7.22;;
52180;SDS011;38158;53.338;6.514;2024-02-15T11:38:35;9.68;;;7.30;;
52180;SDS011;38158;53.338;6.514;2024-02-15T11:41:02;8.25;;;5.95;;
52180;SDS011;38158;53.338;6.514;2024-02-15T11:46:17;9.40;;;7.22;;
52180;SDS011;38158;53.338;6.514;2024-02-15T11:48:50;9.57;;;7.65;;
52180;SDS011;38158;53.338;6.514;2024-02-15T11:51:34;9.60;;;8.07;;
52180;SDS011;38158;53.338;6.514;2024-02-15T11:54:08;9.32;;;6.95;;
52180;SDS011;38158;53.338;6.514;2024-02-15T11:59:12;8.10;;;6.72;;
52180;SDS011;38158;53.338;6.514;2024-02-15T12:01:53;8.95;;;6.93;;
52180;SDS011;38158;53.338;6.514;2024-02-15T12:04:38;8.50;;;6.80;;
52180;SDS011;38158;53.338;6.514;2024-02-15T12:07:37;7.70;;;6.70;;
52180;SDS011;38158;53.338;6.514;2024-02-15T12:10:22;8.27;;;6.75;;
52180;SDS011;38158;53.338;6.514;2024-02-15T12:13:06;7.82;;;6.00;;
52180;SDS011;38158;53.338;6.514;2024-02-15T12:15:57;8.18;;;5.65;;
52180;SDS011;38158;53.338;6.514;2024-02-15T12:18:45;8.32;;;5.80;;
52180;SDS011;38158;53.338;6.514;2024-02-15T12:21:17;6.70;;;4.60;;
52180;SDS011;38158;53.338;6.514;2024-02-15T12:23:48;7.03;;;5.50;;
52180;SDS011;38158;53.338;6.514;2024-02-15T12:26:18;8.15;;;5.70;;
52180;SDS011;38158;53.338;6.514;2024-02-15T12:28:53;8.10;;;5.28;;
52180;SDS011;38158;53.338;6.514;2024-02-15T12:31:23;6.47;;;5.22;;
52180;SDS011;38158;53.338;6.514;2024-02-15T12:34:03;6.30;;;5.10;;
52180;SDS011;38158;53.338;6.514;2024-02-15T12:36:36;5.97;;;4.95;;
52180;SDS011;38158;53.338;6.514;2024-02-15T12:39:03;7.13;;;5.65;;
52180;SDS011;38158;53.338;6.514;2024-02-15T12:41:39;5.80;;;4.72;;
52180;SDS011;38158;53.338;6.514;2024-02-15T12:44:08;6.95;;;4.93;;
52180;SDS011;38158;53.338;6.514;2024-02-15T12:46:35;6.47;;;5.18;;
52180;SDS011;38158;53.338;6.514;2024-02-15T12:49:12;7.80;;;5.80;;
52180;SDS011;38158;53.338;6.514;2024-02-15T12:51:49;8.18;;;6.10;;
52180;SDS011;38158;53.338;6.514;2024-02-15T12:54:19;9.95;;;6.43;;
52180;SDS011;38158;53.338;6.514;2024-02-15T12:56:46;8.02;;;5.25;;
52180;SDS011;38158;53.338;6.514;2024-02-15T12:59:18;8.55;;;5.80;;
52180;SDS011;38158;53.338;6.514;2024-02-15T13:01:47;11.05;;;7.10;;
52180;SDS011;38158;53.338;6.514;2024-02-15T13:04:21;8.85;;;5.70;;
52180;SDS011;38158;53.338;6.514;2024-02-15T13:06:50;10.95;;;7.47;;
52180;SDS011;38158;53.338;6.514;2024-02-15T13:09:16;11.30;;;8.32;;
52180;SDS011;38158;53.338;6.514;2024-02-15T13:11:41;11.93;;;7.57;;
52180;SDS011;38158;53.338;6.514;2024-02-15T13:14:10;10.82;;;8.07;;
52180;SDS011;38158;53.338;6.514;2024-02-15T13:16:36;13.05;;;8.35;;
52180;SDS011;38158;53.338;6.514;2024-02-15T13:19:02;13.10;;;9.27;;
52180;SDS011;38158;53.338;6.514;2024-02-15T13:21:28;13.02;;;9.82;;
52180;SDS011;38158;53.338;6.514;2024-02-15T13:23:55;12.85;;;9.68;;
52180;SDS011;38158;53.338;6.514;2024-02-15T13:26:21;13.85;;;9.55;;
52180;SDS011;38158;53.338;6.514;2024-02-15T13:28:50;14.90;;;10.93;;
52180;SDS011;38158;53.338;6.514;2024-02-15T13:31:17;15.15;;;9.70;;
52180;SDS011;38158;53.338;6.514;2024-02-15T13:33:42;12.90;;;9.38;;
52180;SDS011;38158;53.338;6.514;2024-02-15T13:36:08;14.68;;;10.02;;
52180;SDS011;38158;53.338;6.514;2024-02-15T13:38:38;16.70;;;9.60;;
52180;SDS011;38158;53.338;6.514;2024-02-15T13:41:04;13.77;;;9.40;;
52180;SDS011;38158;53.338;6.514;2024-02-15T13:43:30;16.27;;;10.38;;
52180;SDS011;38158;53.338;6.514;2024-02-15T13:45:57;13.55;;;10.20;;
52180;SDS011;38158;53.338;6.514;2024-02-15T13:48:24;13.20;;;9.40;;
52180;SDS011;38158;53.338;6.514;2024-02-15T13:50:55;12.25;;;8.32;;
52180;SDS011;38158;53.338;6.514;2024-02-15T13:53:21;13.00;;;9.98;;
52180;SDS011;38158;53.338;6.514;2024-02-15T13:55:50;14.55;;;9.48;;
52180;SDS011;38158;53.338;6.514;2024-02-15T13:58:17;16.13;;;10.63;;
52180;SDS011;38158;53.338;6.514;2024-02-15T14:00:43;13.50;;;9.90;;
52180;SDS011;38158;53.338;6.514;2024-02-15T14:03:10;15.25;;;10.35;;
52180;SDS011;38158;53.338;6.514;2024-02-15T14:05:36;15.35;;;10.35;;
52180;SDS011;38158;53.338;6.514;2024-02-15T14:08:05;13.63;;;9.90;;
52180;SDS011;38158;53.338;6.514;2024-02-15T14:10:32;13.90;;;8.98;;
52180;SDS011;38158;53.338;6.514;2024-02-15T14:13:00;13.27;;;9.68;;
52180;SDS011;38158;53.338;6.514;2024-02-15T14:15:27;14.52;;;9.27;;
52180;SDS011;38158;53.338;6.514;2024-02-15T14:17:53;13.35;;;9.77;;
52180;SDS011;38158;53.338;6.514;2024-02-15T14:22:47;14.95;;;8.82;;
52180;SDS011;38158;53.338;6.514;2024-02-15T14:25:23;12.25;;;8.98;;
52180;SDS011;38158;53.338;6.514;2024-02-15T14:27:50;12.52;;;9.75;;
52180;SDS011;38158;53.338;6.514;2024-02-15T14:30:19;12.90;;;9.02;;
52180;SDS011;38158;53.338;6.514;2024-02-15T14:33:04;10.95;;;8.77;;
52180;SDS011;38158;53.338;6.514;2024-02-15T14:35:33;16.80;;;10.40;;
52180;SDS011;38158;53.338;6.514;2024-02-15T14:38:04;12.13;;;8.93;;
52180;SDS011;38158;53.338;6.514;2024-02-15T14:40:35;13.13;;;8.63;;
52180;SDS011;38158;53.338;6.514;2024-02-15T14:43:02;12.10;;;9.07;;
52180;SDS011;38158;53.338;6.514;2024-02-15T14:45:34;15.02;;;9.90;;
52180;SDS011;38158;53.338;6.514;2024-02-15T14:48:03;14.43;;;9.90;;
52180;SDS011;38158;53.338;6.514;2024-02-15T14:50:30;17.85;;;9.70;;
52180;SDS011;38158;53.338;6.514;2024-02-15T14:52:55;13.75;;;9.93;;
52180;SDS011;38158;53.338;6.514;2024-02-15T14:55:22;13.43;;;9.63;;
52180;SDS011;38158;53.338;6.514;2024-02-15T14:57:47;12.73;;;9.18;;
52180;SDS011;38158;53.338;6.514;2024-02-15T15:00:14;13.37;;;9.70;;